LIPH

Treviso-Sant'Angelo Airport

Treviso, Italy
TAF LIPH 230500Z 2306/2406 VRB05KT CAVOK TEMPO 2322/2406 2000 BCFG
Issued Valid From Valid To
Apr-23 @ 05:00 UTC
(5 hours ago)
Apr-23 @ 06:00 UTC
(4 hours ago)
Apr-24 @ 06:00 UTC
(in 20 hours)
Apr-23 @ 06:00 to Apr-24 @ 06:00
TAF LIPH 230500Z 2306/2406 VRB05KT CAVOK
Wind Visibility Clouds Conditions
Variable at 5 knots 10,000+ meters
  • No significant clouds
Temporary Apr-23 @ 22:00 to Apr-24 @ 06:00
TEMPO 2322/2406 2000 BCFG
Visibility Conditions
1,996 meters
  • Patches of
  • Fog
TAF LIPH 230500Z 2306/2406 VRB05KT CAVOK TEMPO 2322/2406 2000 BCFG
Issued Apr-23 @ 05:00 UTC
(5 hours ago)
Valid From Apr-23 @ 06:00 UTC
(4 hours ago)
Valid To Apr-24 @ 06:00 UTC
(in 20 hours)
Apr-23 @ 06:00 - Apr-24 @ 06:00
Wind Visibility
Variable at 5 knots 10,000+ meters
Clouds
  • No significant clouds
Conditions
Temporary Apr-23 @ 22:00 - Apr-24 @ 06:00
Conditions
  • Patches of
  • Fog